Time;durP1;ratioP1;P1;durP2;ratioP2;P2;SDS_P1;SDS_P2;PMS_P1;PMS_P2;Temp;Humidity;BMP_temperature;BMP_pressure;BME280_temperature;BME280_humidity;BME280_pressure;Samples;Min_cycle;Max_cycle;Signal;HPM_P1;HPM_P2
2023/11/03 00:02:10;;;;;;;2.85;1.23;;;;;;;5.57;100.00;96055.97;5008227;28;20022;-77
2023/11/03 00:04:36;;;;;;;2.47;1.13;;;;;;;5.50;100.00;96045.38;5008002;28;20035;-77
2023/11/03 00:07:04;;;;;;;2.15;0.80;;;;;;;5.54;100.00;96043.84;5024664;28;21616;-78
2023/11/03 00:09:36;;;;;;;1.77;0.82;;;;;;;5.51;100.00;96038.16;5008571;28;20060;-77
2023/11/03 00:12:09;;;;;;;3.10;0.90;;;;;;;5.61;100.00;96041.03;5008575;28;20340;-77
2023/11/03 00:14:34;;;;;;;4.43;1.17;;;;;;;5.51;100.00;96041.66;5007144;28;20030;-77
2023/11/03 00:16:59;;;;;;;1.95;0.90;;;;;;;5.37;100.00;96053.69;5013131;28;20030;-77
2023/11/03 00:19:25;;;;;;;2.50;1.00;;;;;;;5.14;100.00;96052.72;5026795;28;20021;-77
2023/11/03 00:21:54;;;;;;;2.90;0.90;;;;;;;4.86;100.00;96049.97;5027876;28;20034;-77
2023/11/03 00:24:20;;;;;;;3.28;0.80;;;;;;;4.83;100.00;96068.13;4988523;28;20030;-77
2023/11/03 00:26:54;;;;;;;4.00;0.50;;;;;;;4.67;100.00;96065.34;5022439;28;20033;-77
2023/11/03 00:29:19;;;;;;;2.78;1.05;;;;;;;4.68;100.00;96081.19;5029228;28;20060;-77
2023/11/03 00:31:47;;;;;;;4.25;1.17;;;;;;;4.59;100.00;96064.66;5010633;28;20022;-77
2023/11/03 00:34:13;;;;;;;1.27;0.70;;;;;;;4.56;100.00;96075.03;5028460;28;20025;-77
2023/11/03 00:36:39;;;;;;;2.47;0.70;;;;;;;4.49;100.00;96066.28;5012027;28;20024;-77
2023/11/03 00:39:07;;;;;;;2.13;0.68;;;;;;;4.37;100.00;96067.06;5019796;28;20210;-77
2023/11/03 00:41:32;;;;;;;2.47;0.85;;;;;;;4.25;100.00;96068.94;5030649;28;20025;-77
2023/11/03 00:43:57;;;;;;;1.80;0.77;;;;;;;4.28;100.00;96084.53;5026588;28;20034;-77
2023/11/03 00:46:23;;;;;;;4.38;0.63;;;;;;;4.21;100.00;96065.06;5036026;28;20060;-77
2023/11/03 00:48:48;;;;;;;3.05;0.77;;;;;;;4.33;100.00;96067.78;5018603;28;20346;-77
2023/11/03 00:51:13;;;;;;;2.70;0.75;;;;;;;4.36;100.00;96078.81;5019522;28;20041;-77
2023/11/03 00:53:39;;;;;;;3.30;0.88;;;;;;;4.23;100.00;96054.97;5036933;28;20125;-77
2023/11/03 00:56:05;;;;;;;3.95;1.17;;;;;;;4.25;100.00;96065.44;5032875;28;20021;-77
2023/11/03 00:58:30;;;;;;;1.83;1.20;;;;;;;4.16;100.00;96067.63;5013276;28;20330;-77
2023/11/03 01:00:56;;;;;;;2.47;1.42;;;;;;;4.17;100.00;96062.06;5029737;28;20045;-78
2023/11/03 01:03:24;;;;;;;3.72;1.20;;;;;;;4.16;100.00;96064.94;5031783;28;20061;-77
2023/11/03 01:05:50;;;;;;;6.38;1.45;;;;;;;4.21;100.00;96067.75;5033048;28;20038;-77
2023/11/03 01:08:15;;;;;;;2.30;0.93;;;;;;;4.12;100.00;96056.56;5019590;28;20041;-77
2023/11/03 01:10:41;;;;;;;2.35;0.80;;;;;;;4.13;100.00;96044.81;5005343;28;20041;-77
2023/11/03 01:13:10;;;;;;;12.35;1.17;;;;;;;4.10;100.00;96064.00;5030910;28;20057;-77
2023/11/03 01:15:39;;;;;;;2.90;0.73;;;;;;;4.05;100.00;96066.56;5009962;28;20379;-77
2023/11/03 01:18:05;;;;;;;;;;;;;;;4.03;100.00;96060.63;5034523;28;20049;-77
2023/11/03 01:20:31;;;;;;;4.75;1.23;;;;;;;3.93;100.00;96058.53;5025148;28;19912;-77
2023/11/03 01:22:58;;;;;;;8.52;1.80;;;;;;;4.06;100.00;96052.16;4995725;28;20033;-77
2023/11/03 01:25:24;;;;;;;3.33;1.45;;;;;;;4.29;100.00;96059.38;5010860;28;20044;-77
2023/11/03 01:27:50;;;;;;;3.78;1.25;;;;;;;4.20;100.00;96057.28;5025422;28;20209;-77
2023/11/03 01:30:17;;;;;;;6.68;1.20;;;;;;;4.19;100.00;96067.16;5022677;28;20029;-77
2023/11/03 01:32:43;;;;;;;7.38;2.40;;;;;;;3.94;100.00;96043.28;5023562;28;20026;-77
2023/11/03 01:35:09;;;;;;;7.75;2.20;;;;;;;3.99;100.00;96082.72;5026838;28;20034;-77
2023/11/03 01:37:34;;;;;;;5.03;2.20;;;;;;;3.90;100.00;96084.88;5018221;28;20035;-77
2023/11/03 01:40:06;;;;;;;7.75;2.28;;;;;;;3.81;100.00;96080.91;5029052;28;20052;-77
2023/11/03 01:42:31;;;;;;;6.22;1.50;;;;;;;3.92;100.00;96097.00;5004428;28;20021;-77
2023/11/03 01:44:57;;;;;;;7.78;1.30;;;;;;;4.05;100.00;96114.72;5015070;28;20104;-76
2023/11/03 01:47:22;;;;;;;5.40;1.40;;;;;;;3.98;100.00;96097.94;5031668;28;20033;-76
2023/11/03 01:49:47;;;;;;;7.00;1.17;;;;;;;4.06;100.00;96108.34;5024168;28;20026;-76
2023/11/03 01:52:14;;;;;;;8.05;0.68;;;;;;;4.29;100.00;96112.09;5017334;28;20052;-76
2023/11/03 01:54:41;;;;;;;4.78;1.00;;;;;;;4.23;100.00;96100.47;5011235;28;20033;-76
2023/11/03 01:57:07;;;;;;;5.88;0.98;;;;;;;4.30;100.00;96095.00;5016083;28;20027;-76
2023/11/03 01:59:32;;;;;;;4.45;1.05;;;;;;;4.29;100.00;96112.09;5012182;28;20026;-76
2023/11/03 02:01:59;;;;;;;6.55;1.25;;;;;;;4.37;100.00;96112.56;5009178;28;20302;-76
2023/11/03 02:04:24;;;;;;;2.75;0.85;;;;;;;4.34;100.00;96117.56;5010273;28;20049;-77
2023/11/03 02:06:50;;;;;;;4.07;1.40;;;;;;;4.29;100.00;96110.22;5025641;28;20327;-76
2023/11/03 02:09:15;;;;;;;6.07;1.63;;;;;;;4.42;100.00;96122.59;5004630;28;20074;-76
2023/11/03 02:11:48;;;;;;;3.95;1.10;;;;;;;4.38;100.00;96121.44;5023174;28;20084;-77
2023/11/03 02:14:14;;;;;;;3.35;1.10;;;;;;;4.36;100.00;96110.94;5000315;28;20036;-76
2023/11/03 02:16:39;;;;;;;1.55;0.98;;;;;;;4.48;100.00;96110.97;5012877;28;20030;-76
2023/11/03 02:19:10;;;;;;;3.28;0.98;;;;;;;4.46;100.00;96126.47;5015219;28;20089;-76
2023/11/03 02:21:37;;;;;;;2.35;1.10;;;;;;;4.36;100.00;96099.44;5015537;28;20105;-76
2023/11/03 02:24:04;;;;;;;4.30;1.05;;;;;;;4.10;100.00;96079.25;5006191;28;20219;-76
2023/11/03 02:26:29;;;;;;;3.75;0.52;;;;;;;4.25;100.00;96097.56;5034328;28;20025;-77
2023/11/03 02:28:54;;;;;;;3.47;0.90;;;;;;;4.24;100.00;96085.22;5027576;28;20193;-76
2023/11/03 02:31:20;;;;;;;3.80;0.70;;;;;;;4.09;100.00;96083.78;5027450;28;20028;-76
2023/11/03 02:33:46;;;;;;;1.02;0.60;;;;;;;3.95;100.00;96093.06;5029382;28;20032;-76
2023/11/03 02:36:11;;;;;;;2.95;0.93;;;;;;;3.82;100.00;96103.94;5013593;28;20356;-77
2023/11/03 02:38:36;;;;;;;2.35;0.70;;;;;;;3.84;100.00;96104.53;5036221;28;20025;-77
2023/11/03 02:41:03;;;;;;;6.47;1.08;;;;;;;3.58;100.00;96087.00;4988907;28;20026;-77
2023/11/03 02:43:28;;;;;;;3.17;0.68;;;;;;;3.56;100.00;96110.44;5013233;28;20060;-77
2023/11/03 02:45:53;;;;;;;2.88;0.70;;;;;;;3.28;100.00;96093.94;5004617;28;20025;-77
2023/11/03 02:48:19;;;;;;;10.15;1.00;;;;;;;3.26;100.00;96098.69;5026182;28;20048;-76
2023/11/03 02:50:44;;;;;;;1.55;0.80;;;;;;;3.22;100.00;96102.00;5022731;28;20077;-77
2023/11/03 02:53:09;;;;;;;2.13;0.70;;;;;;;3.16;100.00;96094.91;5024245;28;20057;-77
2023/11/03 02:55:35;;;;;;;1.58;0.77;;;;;;;3.36;100.00;96110.72;5029040;28;20037;-77
2023/11/03 02:58:01;;;;;;;3.63;0.90;;;;;;;3.42;100.00;96110.63;5005473;28;20021;-77
2023/11/03 03:00:28;;;;;;;2.90;0.95;;;;;;;3.27;100.00;96086.97;5021303;28;20029;-77
2023/11/03 03:02:54;;;;;;;3.60;1.08;;;;;;;3.25;100.00;96096.25;5023966;28;20033;-77
2023/11/03 03:05:19;;;;;;;4.13;1.15;;;;;;;3.26;100.00;96096.00;5024413;28;20323;-76
2023/11/03 03:07:46;;;;;;;1.85;1.13;;;;;;;3.42;100.00;96099.13;5014422;28;20226;-76
2023/11/03 03:10:12;;;;;;;5.07;1.10;;;;;;;3.55;100.00;96106.16;5022928;28;20362;-77
2023/11/03 03:12:37;;;;;;;4.40;1.40;;;;;;;3.45;100.00;96061.25;5022570;28;20030;-77
2023/11/03 03:15:04;;;;;;;2.13;1.02;;;;;;;3.66;100.00;96094.69;5005626;28;20045;-77
2023/11/03 03:17:30;;;;;;;4.85;1.30;;;;;;;3.72;100.00;96094.63;5010064;28;20017;-77
2023/11/03 03:19:55;;;;;;;4.05;1.52;;;;;;;3.97;100.00;96092.84;5037802;28;20028;-77
2023/11/03 03:22:21;;;;;;;6.63;1.40;;;;;;;4.04;100.00;96107.75;5025068;28;20044;-77
2023/11/03 03:24:46;;;;;;;10.63;1.15;;;;;;;3.96;100.00;96094.69;5014670;28;20041;-77
2023/11/03 03:27:11;;;;;;;2.83;1.27;;;;;;;4.00;100.00;96105.75;5020988;28;20024;-78
2023/11/03 03:29:36;;;;;;;4.88;1.20;;;;;;;4.02;100.00;96098.31;5031155;28;20258;-77
2023/11/03 03:32:02;;;;;;;2.55;1.20;;;;;;;4.00;100.00;96101.22;5031615;28;20029;-77
2023/11/03 03:34:27;;;;;;;4.68;0.98;;;;;;;3.91;100.00;96097.25;5023970;28;20022;-77
2023/11/03 03:36:53;;;;;;;3.63;1.20;;;;;;;4.00;100.00;96098.53;5038260;28;20032;-77
2023/11/03 03:39:18;;;;;;;2.55;0.90;;;;;;;4.14;100.00;96097.31;5007900;28;20057;-77
2023/11/03 03:41:43;;;;;;;2.50;0.98;;;;;;;4.26;100.00;96109.88;5016090;28;20096;-77
2023/11/03 03:44:08;;;;;;;2.83;1.23;;;;;;;4.18;100.00;96093.09;5011708;28;20067;-78
2023/11/03 03:46:37;;;;;;;1.45;0.70;;;;;;;4.12;100.00;96099.38;5002714;28;20033;-77
2023/11/03 03:49:03;;;;;;;7.30;1.58;;;;;;;4.23;100.00;96107.66;5030725;28;20030;-77
2023/11/03 03:51:28;;;;;;;5.72;1.13;;;;;;;4.34;100.00;96104.19;4992972;28;20033;-78
2023/11/03 03:53:54;;;;;;;4.15;1.10;;;;;;;4.44;100.00;96101.78;5001097;28;20060;-77
2023/11/03 03:56:25;;;;;;;2.88;0.85;;;;;;;4.35;100.00;96071.84;5018834;28;20022;-77
2023/11/03 03:58:50;;;;;;;1.27;0.77;;;;;;;4.29;100.00;96061.25;5029120;28;20040;-79
2023/11/03 04:01:16;;;;;;;4.47;0.88;;;;;;;4.31;100.00;96062.66;5016446;28;20022;-76
2023/11/03 04:03:41;;;;;;;7.78;0.73;;;;;;;4.40;100.00;96073.81;5010759;28;20029;-76
2023/11/03 04:06:09;;;;;;;4.22;0.95;;;;;;;4.47;100.00;96077.22;5026691;28;20072;-76
2023/11/03 04:08:35;;;;;;;4.40;1.10;;;;;;;4.46;100.00;96067.56;5019609;28;20021;-77
2023/11/03 04:11:00;;;;;;;2.08;0.88;;;;;;;4.40;100.00;96057.75;5008418;28;20022;-77
2023/11/03 04:13:26;;;;;;;3.67;1.20;;;;;;;4.50;100.00;96063.34;5010124;28;20028;-76
2023/11/03 04:15:52;;;;;;;4.10;0.98;;;;;;;4.55;100.00;96084.91;5035409;28;20081;-79
2023/11/03 04:18:17;;;;;;;3.70;1.05;;;;;;;4.66;100.00;96103.88;5017490;28;20319;-77
2023/11/03 04:20:43;;;;;;;4.50;1.75;;;;;;;4.55;100.00;96086.75;5017303;28;20018;-76
2023/11/03 04:23:08;;;;;;;8.45;1.33;;;;;;;4.61;100.00;96105.41;5007757;28;20041;-76
2023/11/03 04:25:33;;;;;;;7.68;1.55;;;;;;;4.63;100.00;96089.09;5011281;28;20041;-76
2023/11/03 04:27:59;;;;;;;4.90;1.33;;;;;;;4.80;100.00;96087.34;5019126;28;20025;-76
2023/11/03 04:30:24;;;;;;;6.40;1.08;;;;;;;4.76;100.00;96078.13;5015154;28;20021;-76
2023/11/03 04:32:49;;;;;;;2.40;1.20;;;;;;;4.62;100.00;96052.66;5018536;28;20881;-77
2023/11/03 04:35:14;;;;;;;4.88;1.38;;;;;;;4.80;100.00;96078.50;5033367;28;20033;-77
2023/11/03 04:37:40;;;;;;;3.30;1.70;;;;;;;4.83;100.00;96073.50;5021213;28;20109;-77
2023/11/03 04:40:06;;;;;;;2.33;1.75;;;;;;;4.64;100.00;96063.13;5044750;28;20210;-77
2023/11/03 04:42:31;;;;;;;4.22;1.30;;;;;;;4.76;100.00;96091.53;5033225;28;20085;-76
2023/11/03 04:44:57;;;;;;;4.82;1.45;;;;;;;4.77;100.00;96087.81;5013629;28;20339;-80
2023/11/03 04:47:22;;;;;;;3.22;1.20;;;;;;;4.81;100.00;96094.31;5024611;28;20032;-83
2023/11/03 04:49:48;;;;;;;3.83;1.10;;;;;;;4.87;100.00;96081.06;5003018;28;20022;-79
2023/11/03 04:52:13;;;;;;;9.43;1.90;;;;;;;4.97;100.00;96090.13;5044370;28;20028;-80
2023/11/03 04:54:38;;;;;;;2.63;1.02;;;;;;;4.97;100.00;96081.28;5009421;28;20017;-79
2023/11/03 04:57:05;;;;;;;3.83;1.15;;;;;;;5.06;100.00;96087.91;5004329;28;20040;-80
2023/11/03 04:59:30;;;;;;;4.40;1.15;;;;;;;5.10;100.00;96086.38;5003372;28;20018;-77
2023/11/03 05:01:56;;;;;;;6.45;1.38;;;;;;;5.21;100.00;96092.78;5029908;28;20106;-77
2023/11/03 05:04:22;;;;;;;3.92;1.10;;;;;;;5.13;100.00;96080.53;5025852;28;20242;-74
2023/11/03 05:06:47;;;;;;;3.17;1.25;;;;;;;5.23;100.00;96102.22;5005716;28;20089;-80
2023/11/03 05:09:13;;;;;;;5.82;1.23;;;;;;;5.27;100.00;96094.53;5008703;28;20327;-73
2023/11/03 05:11:38;;;;;;;2.53;1.10;;;;;;;5.19;100.00;96082.31;5026223;28;20330;-77
2023/11/03 05:14:05;;;;;;;5.93;1.20;;;;;;;5.35;100.00;96077.25;5031014;28;20342;-74
2023/11/03 05:16:30;;;;;;;3.88;1.23;;;;;;;5.34;100.00;96070.25;4999741;28;20025;-78
2023/11/03 05:18:56;;;;;;;9.30;1.58;;;;;;;5.30;100.00;96061.06;5015599;28;20024;-76
2023/11/03 05:21:21;;;;;;;3.83;1.13;;;;;;;5.36;100.00;96071.66;5014111;28;20324;-76
2023/11/03 05:23:46;;;;;;;5.10;1.42;;;;;;;5.33;100.00;96074.81;5007016;28;20029;-74
2023/11/03 05:26:12;;;;;;;4.68;1.20;;;;;;;5.32;100.00;96081.22;5004207;28;20058;-75
2023/11/03 05:28:37;;;;;;;2.78;1.17;;;;;;;5.35;100.00;96079.94;4997558;28;20033;-76
2023/11/03 05:31:03;;;;;;;3.30;1.33;;;;;;;5.42;100.00;96092.16;5021222;28;20386;-76
2023/11/03 05:33:28;;;;;;;3.70;1.17;;;;;;;5.49;100.00;96106.22;4993855;28;20017;-75
2023/11/03 05:35:53;;;;;;;4.93;1.40;;;;;;;5.42;100.00;96094.84;5025182;28;20040;-75
2023/11/03 05:38:19;;;;;;;7.43;1.80;;;;;;;5.49;100.00;96098.19;5004786;28;20022;-78
2023/11/03 05:40:44;;;;;;;5.35;1.13;;;;;;;5.48;100.00;96099.25;5002824;28;20045;-81
2023/11/03 05:43:09;;;;;;;9.20;1.50;;;;;;;5.55;100.00;96111.69;5008590;28;20102;-80
2023/11/03 05:45:35;;;;;;;4.05;1.40;;;;;;;5.54;100.00;96115.44;5007689;28;20030;-78
2023/11/03 05:48:00;;;;;;;2.80;1.10;;;;;;;5.59;100.00;96129.75;5025063;28;20089;-79
2023/11/03 05:50:25;;;;;;;7.30;1.05;;;;;;;5.58;100.00;96116.59;5023997;28;20361;-79
2023/11/03 05:52:51;;;;;;;7.20;1.40;;;;;;;5.64;100.00;96118.34;5006302;28;20300;-77
2023/11/03 05:55:16;;;;;;;5.50;1.70;;;;;;;5.69;100.00;96118.44;5009398;28;20028;-73
2023/11/03 05:57:41;;;;;;;3.97;1.50;;;;;;;5.68;100.00;96124.84;5005603;28;20018;-73
2023/11/03 06:00:10;;;;;;;1.40;1.08;;;;;;;5.67;100.00;96132.06;5027969;28;20037;-77
2023/11/03 06:02:36;;;;;;;;;;;;;;;5.77;100.00;96142.19;5004112;28;20033;-74
2023/11/03 06:05:03;;;;;;;7.15;1.48;;;;;;;5.75;100.00;96132.75;5008983;28;19910;-77
2023/11/03 06:07:29;;;;;;;6.07;1.20;;;;;;;5.78;100.00;96148.38;5010524;28;20077;-74
2023/11/03 06:09:54;;;;;;;2.47;0.90;;;;;;;5.76;100.00;96142.41;5030352;28;20021;-75
2023/11/03 06:12:19;;;;;;;7.65;1.10;;;;;;;5.71;100.00;96135.91;5020086;28;20144;-73
2023/11/03 06:14:44;;;;;;;7.30;1.67;;;;;;;5.88;100.00;96160.13;5012245;28;20031;-72
2023/11/03 06:17:10;;;;;;;6.20;1.42;;;;;;;5.87;100.00;96150.44;5019968;28;20025;-75
2023/11/03 06:19:36;;;;;;;2.38;1.17;;;;;;;5.89;100.00;96161.75;5026023;28;20035;-75
2023/11/03 06:22:01;;;;;;;7.75;1.50;;;;;;;5.85;100.00;96155.22;5003321;28;20092;-75
2023/11/03 06:24:26;;;;;;;3.90;1.02;;;;;;;5.84;100.00;96153.63;5024615;28;20034;-76
2023/11/03 06:26:52;;;;;;;2.92;1.33;;;;;;;5.88;100.00;96156.63;4997246;28;20018;-75
2023/11/03 06:29:17;;;;;;;4.38;1.20;;;;;;;5.99;100.00;96171.91;5012922;28;20026;-74
2023/11/03 06:31:42;;;;;;;7.50;1.60;;;;;;;5.92;100.00;96161.28;5001682;28;20022;-75
2023/11/03 06:34:08;;;;;;;4.32;1.30;;;;;;;6.05;100.00;96170.97;5002007;28;20041;-76
2023/11/03 06:36:34;;;;;;;8.02;1.30;;;;;;;6.05;100.00;96172.81;5022538;28;20025;-73
2023/11/03 06:38:59;;;;;;;5.15;1.65;;;;;;;6.10;100.00;96173.75;4995999;28;20025;-77
2023/11/03 06:41:24;;;;;;;7.55;1.45;;;;;;;6.04;100.00;96168.50;5000748;28;20026;-75
2023/11/03 06:43:50;;;;;;;7.43;1.52;;;;;;;6.17;100.00;96187.00;5006656;28;20227;-75
2023/11/03 06:46:15;;;;;;;4.55;1.50;;;;;;;6.19;100.00;96182.22;5022661;28;20033;-75
2023/11/03 06:48:40;;;;;;;8.50;1.85;;;;;;;6.17;100.00;96178.94;5024795;28;20032;-76
2023/11/03 06:51:12;;;;;;;7.03;1.55;;;;;;;6.26;100.00;96199.00;5014336;28;20029;-75
2023/11/03 06:53:37;;;;;;;4.00;1.25;;;;;;;6.22;100.00;96180.91;5029555;28;20061;-76
2023/11/03 06:56:04;;;;;;;4.75;1.40;;;;;;;6.31;100.00;96206.31;5022077;28;20033;-75
2023/11/03 06:58:29;;;;;;;5.07;1.67;;;;;;;6.29;100.00;96201.19;4995940;28;20041;-75
2023/11/03 07:00:54;;;;;;;3.70;1.30;;;;;;;6.24;100.00;96195.72;5017042;28;20251;-76
2023/11/03 07:03:19;;;;;;;3.38;1.30;;;;;;;6.18;100.00;96190.50;5019980;28;20029;-76
2023/11/03 07:05:46;;;;;;;4.93;1.33;;;;;;;6.35;100.00;96215.53;5019144;28;20319;-74
2023/11/03 07:08:11;;;;;;;6.13;1.50;;;;;;;6.40;100.00;96220.19;4997901;28;20033;-74
2023/11/03 07:10:36;;;;;;;5.25;1.77;;;;;;;6.45;100.00;96212.22;5014135;28;20072;-75
2023/11/03 07:13:03;;;;;;;7.35;1.75;;;;;;;6.50;100.00;96215.81;5002132;28;20030;-74
2023/11/03 07:15:30;;;;;;;3.78;1.23;;;;;;;6.61;100.00;96243.69;5008359;28;20034;-75
2023/11/03 07:17:58;;;;;;;3.75;1.30;;;;;;;6.58;100.00;96239.59;5021480;28;20028;-74
2023/11/03 07:20:24;;;;;;;3.50;1.05;;;;;;;6.66;100.00;96251.81;5012303;28;20048;-76
2023/11/03 07:22:49;;;;;;;2.95;1.35;;;;;;;6.69;100.00;96245.97;5018225;28;20030;-75
2023/11/03 07:25:14;;;;;;;5.25;1.50;;;;;;;6.67;100.00;96237.31;5008158;28;20349;-78
2023/11/03 07:27:40;;;;;;;7.00;2.17;;;;;;;6.78;100.00;96255.25;5008258;28;20327;-74
2023/11/03 07:30:06;;;;;;;4.55;1.10;;;;;;;6.73;100.00;96241.75;5001209;28;20045;-70
2023/11/03 07:32:31;;;;;;;6.97;1.83;;;;;;;6.83;100.00;96248.34;5017183;28;20132;-69
2023/11/03 07:34:56;;;;;;;2.67;1.45;;;;;;;6.89;100.00;96255.44;5020601;28;20085;-69
2023/11/03 07:37:22;;;;;;;5.68;1.35;;;;;;;6.94;100.00;96248.28;5022289;28;20032;-77
2023/11/03 07:39:49;;;;;;;8.48;1.83;;;;;;;6.95;100.00;96252.59;5017902;28;20020;-73
2023/11/03 07:42:16;;;;;;;5.28;1.80;;;;;;;7.00;100.00;96262.63;5008404;28;20060;-69
2023/11/03 07:44:42;;;;;;;5.10;1.60;;;;;;;7.08;100.00;96267.59;5007208;28;20025;-69
2023/11/03 07:47:08;;;;;;;6.05;1.58;;;;;;;7.02;100.00;96257.81;5017344;28;20029;-70
2023/11/03 07:49:34;;;;;;;5.25;1.48;;;;;;;7.11;100.00;96258.25;5023139;28;20323;-72
2023/11/03 07:51:59;;;;;;;5.13;1.10;;;;;;;7.12;100.00;96255.28;5025455;28;20080;-72
2023/11/03 07:54:24;;;;;;;5.28;1.42;;;;;;;7.16;100.00;96255.63;5021299;28;20033;-72
2023/11/03 07:56:49;;;;;;;3.15;1.27;;;;;;;7.31;100.00;96260.41;5015253;28;20144;-68
2023/11/03 07:59:15;;;;;;;4.63;1.58;;;;;;;7.31;100.00;96244.28;5009445;28;20046;-70
2023/11/03 08:01:40;;;;;;;5.25;1.83;;;;;;;7.44;100.00;96254.69;5008206;28;20028;-68
2023/11/03 08:04:06;;;;;;;5.97;1.73;;;;;;;7.46;100.00;96244.53;5024054;28;20319;-71
2023/11/03 08:06:31;;;;;;;5.20;1.73;;;;;;;7.42;100.00;96260.34;5012761;28;20097;-69
2023/11/03 08:08:56;;;;;;;4.53;1.55;;;;;;;7.32;100.00;96245.94;4994219;28;20087;-71
2023/11/03 08:11:22;;;;;;;8.70;1.67;;;;;;;7.40;100.00;96256.28;5004204;28;20034;-68
2023/11/03 08:13:47;;;;;;;4.65;1.80;;;;;;;7.33;100.00;96240.28;5025950;28;20057;-70
2023/11/03 08:16:13;;;;;;;8.05;2.20;;;;;;;7.39;100.00;96238.53;5023688;28;20109;-69
2023/11/03 08:18:39;;;;;;;5.28;2.00;;;;;;;7.43;100.00;96245.81;5001378;28;20530;-68
2023/11/03 08:21:04;;;;;;;8.20;1.90;;;;;;;7.53;100.00;96245.16;5013397;28;20049;-72
2023/11/03 08:23:32;;;;;;;5.85;2.67;;;;;;;7.45;100.00;96243.72;5023980;28;20053;-71
2023/11/03 08:25:57;;;;;;;7.65;2.20;;;;;;;7.53;100.00;96253.25;5025030;28;20018;-74
2023/11/03 08:28:22;;;;;;;4.90;2.10;;;;;;;7.56;100.00;96255.44;5015916;28;20056;-68
2023/11/03 08:30:48;;;;;;;6.68;2.63;;;;;;;7.47;100.00;96246.16;5019116;28;20060;-77
2023/11/03 08:33:13;;;;;;;6.93;2.35;;;;;;;7.58;100.00;96252.50;5004112;28;20022;-77
2023/11/03 08:35:38;;;;;;;6.88;1.80;;;;;;;7.81;100.00;96254.19;5007961;28;20188;-75
2023/11/03 08:38:05;;;;;;;5.80;1.80;;;;;;;7.97;100.00;96247.13;5023480;28;20041;-75
2023/11/03 08:40:30;;;;;;;6.40;1.92;;;;;;;8.16;100.00;96253.00;5023572;28;20030;-74
2023/11/03 08:42:56;;;;;;;7.22;1.67;;;;;;;8.34;100.00;96244.63;5022993;28;20026;-72
2023/11/03 08:45:23;;;;;;;5.13;1.75;;;;;;;8.47;100.00;96252.34;5021007;28;20034;-73
2023/11/03 08:47:50;;;;;;;4.20;1.50;;;;;;;8.45;100.00;96232.91;5032917;28;20017;-72
2023/11/03 08:50:16;;;;;;;4.70;1.73;;;;;;;8.60;100.00;96237.66;5018818;28;20361;-75
2023/11/03 08:52:47;;;;;;;5.85;1.10;;;;;;;8.78;100.00;96233.78;4999481;28;20037;-73
2023/11/03 08:55:13;;;;;;;3.88;1.25;;;;;;;9.14;100.00;96243.03;5026503;28;20025;-74
2023/11/03 08:57:40;;;;;;;2.78;1.00;;;;;;;9.20;100.00;96241.97;5029375;28;20037;-75
2023/11/03 09:00:11;;;;;;;2.35;0.88;;;;;;;9.28;100.00;96256.06;5011335;28;20035;-75
2023/11/03 09:02:41;;;;;;;2.95;0.90;;;;;;;9.46;100.00;96273.72;5023798;28;20342;-74
2023/11/03 09:05:09;;;;;;;6.97;1.23;;;;;;;9.51;100.00;96257.56;5007464;28;20057;-77
2023/11/03 09:07:35;;;;;;;6.95;1.20;;;;;;;9.58;100.00;96261.69;4997078;28;20414;-74
2023/11/03 09:10:03;;;;;;;6.07;0.82;;;;;;;9.73;100.00;96271.78;5007670;28;20025;-75
2023/11/03 09:12:29;;;;;;;2.88;0.90;;;;;;;9.43;100.00;96272.34;5024420;28;20032;-76
2023/11/03 09:14:55;;;;;;;3.53;1.08;;;;;;;9.72;100.00;96272.88;5004874;28;20105;-72
2023/11/03 09:17:20;;;;;;;2.40;1.00;;;;;;;9.80;100.00;96268.88;5014123;28;20402;-74
2023/11/03 09:19:46;;;;;;;3.97;1.20;;;;;;;9.93;100.00;96257.59;5009259;28;20021;-75
2023/11/03 09:22:11;;;;;;;4.45;0.95;;;;;;;9.79;100.00;96261.81;4999581;28;20034;-75
2023/11/03 09:24:36;;;;;;;3.63;1.10;;;;;;;9.99;100.00;96263.84;5024586;28;20776;-74
2023/11/03 09:27:03;;;;;;;2.63;1.00;;;;;;;10.04;100.00;96250.34;5005273;28;20097;-74
2023/11/03 09:29:28;;;;;;;4.80;0.98;;;;;;;10.27;100.00;96249.09;5014936;28;20330;-71
2023/11/03 09:31:53;;;;;;;3.47;0.90;;;;;;;10.50;100.00;96247.84;5017457;28;20032;-70
2023/11/03 09:34:19;;;;;;;2.25;0.70;;;;;;;10.58;100.00;96247.34;5006247;28;20037;-71
2023/11/03 09:36:44;;;;;;;2.70;0.77;;;;;;;10.46;100.00;96241.38;5024471;28;20022;-72
2023/11/03 09:39:10;;;;;;;5.35;0.93;;;;;;;10.50;100.00;96239.75;5008374;28;20018;-70
2023/11/03 09:41:43;;;;;;;7.07;0.80;;;;;;;10.10;100.00;96233.09;5025369;28;20021;-72
2023/11/03 09:44:09;;;;;;;1.90;0.63;;;;;;;10.17;100.00;96230.16;5015322;28;20364;-72
2023/11/03 09:46:34;;;;;;;4.72;0.70;;;;;;;10.39;100.00;96227.28;5011081;28;20028;-70
2023/11/03 09:49:00;;;;;;;3.10;0.65;;;;;;;10.26;100.00;96226.66;5028714;28;20033;-77
2023/11/03 09:51:28;;;;;;;2.22;0.35;;;;;;;10.37;100.00;96232.13;5004666;28;20256;-72
2023/11/03 09:53:54;;;;;;;1.60;0.40;;;;;;;10.61;100.00;96233.31;5023924;28;20418;-73
2023/11/03 09:56:22;;;;;;;2.42;0.45;;;;;;;10.56;100.00;96227.06;5025123;28;20057;-73
2023/11/03 09:58:48;;;;;;;4.90;0.80;;;;;;;10.66;100.00;96240.59;5023781;28;20014;-72
2023/11/03 10:01:16;;;;;;;2.95;0.70;;;;;;;11.21;100.00;96225.53;5023174;28;20434;-75
2023/11/03 10:03:42;;;;;;;4.82;0.77;;;;;;;11.14;100.00;96222.28;5011437;28;20029;-77
2023/11/03 10:06:08;;;;;;;4.28;0.52;;;;;;;11.73;100.00;96237.13;5014912;28;20077;-75
2023/11/03 10:08:33;;;;;;;0.95;0.50;;;;;;;11.84;100.00;96222.47;5004355;28;20029;-75
2023/11/03 10:10:58;;;;;;;1.33;0.50;;;;;;;11.37;100.00;96221.75;4997078;28;20028;-71
2023/11/03 10:13:25;;;;;;;1.77;0.57;;;;;;;10.94;100.00;96225.78;5021779;28;20076;-77
2023/11/03 10:15:50;;;;;;;0.77;0.40;;;;;;;11.10;100.00;96216.59;5027224;28;20043;-75
2023/11/03 10:18:17;;;;;;;3.88;0.63;;;;;;;10.40;100.00;96218.09;5034663;28;20022;-75
2023/11/03 10:20:44;;;;;;;4.47;0.30;;;;;;;10.67;100.00;96220.63;4996808;28;20378;-74
2023/11/03 10:23:10;;;;;;;1.42;0.30;;;;;;;10.84;100.00;96217.66;4995763;28;20093;-74
2023/11/03 10:25:35;;;;;;;1.85;0.55;;;;;;;11.08;100.00;96216.06;5005825;28;20030;-74
2023/11/03 10:28:01;;;;;;;3.00;0.60;;;;;;;10.79;100.00;96209.53;5006623;28;20041;-71
2023/11/03 10:30:29;;;;;;;2.25;0.40;;;;;;;10.26;100.00;96193.44;5012727;28;20025;-75
2023/11/03 10:32:55;;;;;;;1.92;0.43;;;;;;;10.08;100.00;96202.81;5006118;28;20026;-74
2023/11/03 10:35:21;;;;;;;2.55;0.50;;;;;;;10.50;100.00;96202.72;5005662;28;20308;-77
2023/11/03 10:37:46;;;;;;;5.22;0.77;;;;;;;10.57;100.00;96193.56;5018545;28;20120;-66
2023/11/03 10:40:13;;;;;;;2.90;0.52;;;;;;;10.39;100.00;96208.38;5002442;28;20030;-67
2023/11/03 10:42:40;;;;;;;1.45;0.55;;;;;;;10.80;100.00;96205.75;5027843;28;20034;-68
2023/11/03 10:45:06;;;;;;;4.13;0.32;;;;;;;10.97;100.00;96203.59;5018540;28;20045;-67
2023/11/03 10:47:57;;;;;;;3.22;0.38;;;;;;;10.80;100.00;96209.28;5020423;28;20093;-67
2023/11/03 10:50:33;;;;;;;1.52;0.40;;;;;;;11.31;100.00;96209.28;5025125;28;20033;-68
2023/11/03 10:53:02;;;;;;;3.63;0.73;;;;;;;11.47;100.00;96206.56;5027559;28;20025;-68
2023/11/03 10:55:36;;;;;;;3.83;0.52;;;;;;;11.36;100.00;96195.75;5021196;28;20059;-68
2023/11/03 10:58:02;;;;;;;1.20;0.40;;;;;;;10.98;100.00;96205.25;5013132;28;20022;-68
2023/11/03 11:00:39;;;;;;;1.65;0.30;;;;;;;10.98;100.00;96197.13;5004786;28;20656;-68
2023/11/03 11:03:23;;;;;;;2.20;0.40;;;;;;;10.66;100.00;96208.16;5003091;28;20026;-68
2023/11/03 11:06:01;;;;;;;1.65;0.35;;;;;;;10.50;100.00;96205.41;4993658;28;20089;-69
2023/11/03 11:08:29;;;;;;;0.68;0.43;;;;;;;10.26;100.00;96205.03;5025225;28;20045;-68
2023/11/03 11:10:58;;;;;;;5.55;0.50;;;;;;;10.18;100.00;96210.97;5023332;28;20085;-71
2023/11/03 11:13:25;;;;;;;4.50;0.57;;;;;;;10.39;100.00;96205.66;5025382;28;20037;-78
2023/11/03 11:15:56;;;;;;;0.70;0.40;;;;;;;10.75;100.00;96215.47;5002799;28;20035;-77
2023/11/03 11:18:26;;;;;;;1.20;0.30;;;;;;;10.82;100.00;96220.66;5015566;28;20026;-75
2023/11/03 11:20:54;;;;;;;1.75;0.30;;;;;;;10.52;100.00;96213.25;4995014;28;20032;-77
2023/11/03 11:23:23;;;;;;;2.05;0.20;;;;;;;10.66;100.00;96225.22;5005617;28;20037;-79
2023/11/03 11:25:52;;;;;;;3.40;0.40;;;;;;;10.78;100.00;96224.94;5029625;28;20655;-77
2023/11/03 11:28:31;;;;;;;0.68;0.20;;;;;;;10.67;100.00;96215.22;5010352;28;20045;-76